Time;durP1;ratioP1;P1;durP2;ratioP2;P2;SDS_P1;SDS_P2;PMS_P1;PMS_P2;Temp;Humidity;BMP_temperature;BMP_pressure;BME280_temperature;BME280_humidity;BME280_pressure;Samples;Min_cycle;Max_cycle;Signal;HPM_P1;HPM_P2
2022/03/21 00:01:42;;;;;;;36.58;17.92;;;;;;;6.72;45.78;102896.16;4955863;28;114398;-61
2022/03/21 00:04:09;;;;;;;41.35;20.02;;;;;;;6.71;46.02;102899.69;4957239;28;124113;-61
2022/03/21 00:06:36;;;;;;;37.03;19.40;;;;;;;6.69;45.88;102901.44;4955586;28;124307;-61
2022/03/21 00:09:03;;;;;;;37.45;19.48;;;;;;;6.67;46.01;102892.66;4955564;28;114325;-61
2022/03/21 00:11:31;;;;;;;41.42;20.35;;;;;;;6.66;46.08;102896.16;4952495;28;114172;-61
2022/03/21 00:13:58;;;;;;;37.08;19.98;;;;;;;6.64;46.17;102903.16;4955209;28;123364;-62
2022/03/21 00:16:26;;;;;;;39.25;19.83;;;;;;;6.63;45.97;102906.69;4956644;28;123788;-62
2022/03/21 00:18:53;;;;;;;41.42;21.42;;;;;;;6.60;45.97;102901.41;4958177;28;114224;-62
2022/03/21 00:21:20;;;;;;;40.72;20.27;;;;;;;6.57;46.09;102901.38;4961713;28;113849;-61
2022/03/21 00:23:48;;;;;;;37.97;20.00;;;;;;;6.55;46.28;102913.66;4956860;28;124771;-64
2022/03/21 00:26:15;;;;;;;38.72;19.55;;;;;;;6.53;46.06;102907.50;4958286;28;124102;-61
2022/03/21 00:28:42;;;;;;;38.10;19.13;;;;;;;6.51;46.25;102909.25;4959700;28;114771;-60
2022/03/21 00:31:09;;;;;;;37.97;18.65;;;;;;;6.47;46.37;102905.72;4957055;28;114215;-60
2022/03/21 00:33:37;;;;;;;38.05;19.02;;;;;;;6.42;46.24;102903.06;4957670;28;124855;-60
2022/03/21 00:36:07;;;;;;;39.60;20.33;;;;;;;6.39;46.30;102910.94;4958392;28;123987;-60
2022/03/21 00:38:37;;;;;;;38.97;20.67;;;;;;;6.36;46.24;102913.56;4953157;28;115853;-60
2022/03/21 00:41:05;;;;;;;40.53;21.15;;;;;;;6.35;46.38;102913.56;4959224;28;114978;-60
2022/03/21 00:43:33;;;;;;;38.35;19.83;;;;;;;6.33;46.56;102913.56;4967221;28;123600;-60
2022/03/21 00:46:01;;;;;;;39.50;19.95;;;;;;;6.31;46.55;102912.66;4957587;28;123760;-61
2022/03/21 00:48:30;;;;;;;38.85;19.75;;;;;;;6.28;46.29;102904.75;4955130;28;114542;-61
2022/03/21 00:50:58;;;;;;;39.22;20.90;;;;;;;6.26;46.26;102901.22;4966491;28;114405;-61
2022/03/21 00:53:25;;;;;;;36.08;18.45;;;;;;;6.21;46.19;102910.81;4960175;28;124621;-61
2022/03/21 00:55:52;;;;;;;37.28;20.35;;;;;;;6.17;46.50;102917.81;4965570;28;122858;-60
2022/03/21 00:58:20;;;;;;;37.05;18.63;;;;;;;6.13;46.42;102912.53;4955514;28;114636;-60
2022/03/21 01:00:47;;;;;;;37.25;19.63;;;;;;;6.10;46.44;102925.66;4967343;28;113047;-60
2022/03/21 01:03:15;;;;;;;40.10;19.50;;;;;;;6.06;46.22;102923.88;4953588;28;123037;-61
2022/03/21 01:05:43;;;;;;;40.10;20.15;;;;;;;6.01;46.54;102927.38;4961119;28;124117;-61
2022/03/21 01:08:10;;;;;;;39.53;20.20;;;;;;;5.98;46.33;102937.84;4963581;28;114488;-60
2022/03/21 01:10:37;;;;;;;43.20;20.83;;;;;;;5.95;46.67;102936.91;4963574;28;114659;-60
2022/03/21 01:13:04;;;;;;;41.15;20.27;;;;;;;5.91;46.72;102936.00;4961580;28;123467;-60
2022/03/21 01:15:32;;;;;;;39.53;20.88;;;;;;;5.90;46.77;102934.25;4957887;28;123658;-60
2022/03/21 01:18:00;;;;;;;41.38;21.40;;;;;;;5.89;47.08;102937.75;4955767;28;114563;-61
2022/03/21 01:20:27;;;;;;;48.33;22.88;;;;;;;5.89;46.71;102932.47;4965353;28;114207;-61
2022/03/21 01:22:55;;;;;;;43.60;21.67;;;;;;;5.89;46.99;102937.75;4958342;28;123972;-61
2022/03/21 01:25:22;;;;;;;40.17;20.05;;;;;;;5.88;46.90;102936.00;4955435;28;124472;-61
2022/03/21 01:27:49;;;;;;;38.53;19.23;;;;;;;5.87;46.93;102926.31;4950596;28;115580;-59
2022/03/21 01:30:17;;;;;;;39.78;19.13;;;;;;;5.85;46.89;102936.81;4957195;28;114976;-60
2022/03/21 01:32:45;;;;;;;37.28;18.58;;;;;;;5.84;46.59;102939.47;4962678;28;124579;-59
2022/03/21 01:35:17;;;;;;;35.72;18.38;;;;;;;5.78;46.97;102939.41;4960947;28;123851;-59
2022/03/21 01:37:46;;;;;;;40.25;18.67;;;;;;;5.73;46.92;102947.25;4963543;28;114378;-59
2022/03/21 01:40:15;;;;;;;40.03;18.58;;;;;;;5.70;46.85;102941.97;4962246;28;114767;-59
2022/03/21 01:42:46;;;;;;;38.10;19.02;;;;;;;5.64;46.84;102945.41;4954388;28;122853;-59
2022/03/21 01:45:16;;;;;;;41.58;19.73;;;;;;;5.59;46.93;102949.72;4955547;28;123737;-60
2022/03/21 01:47:44;;;;;;;42.63;19.17;;;;;;;5.55;46.93;102941.81;4956695;28;114122;-59
2022/03/21 01:50:13;;;;;;;39.38;19.98;;;;;;;5.52;46.85;102942.69;4958253;28;113974;-60
2022/03/21 01:52:42;;;;;;;41.88;20.02;;;;;;;5.48;46.88;102951.38;4959610;28;124399;-60
2022/03/21 01:57:59;;;;;;;43.22;20.52;;;;;;;5.44;47.32;102954.84;4960709;28;114506;-59
2022/03/21 02:00:26;;;;;;;39.40;19.27;;;;;;;5.42;47.25;102951.31;4959435;28;114341;-59
2022/03/21 02:02:54;;;;;;;36.97;19.30;;;;;;;5.40;47.20;102951.31;4961357;28;124164;-59
2022/03/21 02:05:21;;;;;;;39.38;19.17;;;;;;;5.40;47.23;102955.69;4960304;28;124308;-59
2022/03/21 02:07:49;;;;;;;39.28;19.65;;;;;;;5.38;47.47;102952.16;4968887;28;114111;-60
2022/03/21 02:10:16;;;;;;;40.00;19.92;;;;;;;5.36;47.22;102949.50;4960551;28;114261;-61
2022/03/21 02:12:44;;;;;;;42.00;20.10;;;;;;;5.35;47.20;102945.13;4948618;28;124132;-60
2022/03/21 02:15:11;;;;;;;41.42;19.70;;;;;;;5.34;47.37;102953.00;4959308;28;124014;-59
2022/03/21 02:17:42;;;;;;;40.70;19.67;;;;;;;5.32;47.43;102946.84;4959985;28;115037;-59
2022/03/21 02:20:11;;;;;;;41.50;19.85;;;;;;;5.29;47.51;102954.69;4957056;28;115030;-59
2022/03/21 02:22:52;;;;;;;37.13;19.50;;;;;;;5.26;47.26;102959.03;4959662;28;124171;-59
2022/03/21 02:25:25;;;;;;;39.92;19.55;;;;;;;5.23;47.63;102951.13;4957336;28;124516;-59
2022/03/21 02:28:15;;;;;;;39.15;20.10;;;;;;;5.21;47.45;102950.22;4957077;28;114197;-60
2022/03/21 02:30:47;;;;;;;40.08;20.02;;;;;;;5.20;47.40;102956.34;4962133;28;113414;-59
2022/03/21 02:33:18;;;;;;;45.30;21.13;;;;;;;5.17;47.41;102951.06;4959361;28;123354;-59
2022/03/21 02:35:49;;;;;;;42.10;19.70;;;;;;;5.15;47.54;102950.16;4961374;28;124979;-59
2022/03/21 02:38:18;;;;;;;44.33;20.70;;;;;;;5.13;47.65;102953.63;4969689;28;114411;-59
2022/03/21 02:40:45;;;;;;;46.10;20.27;;;;;;;5.10;47.73;102949.22;4957257;28;114153;-59
2022/03/21 02:43:12;;;;;;;42.28;20.42;;;;;;;5.09;47.66;102952.72;4955138;28;124008;-61
2022/03/21 02:45:41;;;;;;;43.25;20.88;;;;;;;5.08;47.66;102956.19;4965549;28;124498;-61
2022/03/21 02:48:09;;;;;;;46.78;20.73;;;;;;;5.06;47.66;102948.28;4965614;28;114125;-61
2022/03/21 02:50:45;;;;;;;43.03;21.13;;;;;;;5.02;47.74;102948.25;4957916;28;114425;-62
2022/03/21 02:53:12;;;;;;;42.25;20.05;;;;;;;5.02;47.61;102956.13;4964188;28;123999;-61
2022/03/21 02:55:41;;;;;;;46.50;20.83;;;;;;;4.99;47.89;102946.47;4959696;28;123729;-61
2022/03/21 02:58:08;;;;;;;41.60;19.73;;;;;;;4.97;47.76;102952.56;4961348;28;114290;-61
2022/03/21 03:00:47;;;;;;;41.25;20.38;;;;;;;4.94;47.72;102957.78;4960420;28;114021;-61
2022/03/21 03:03:14;;;;;;;38.60;19.88;;;;;;;4.91;47.62;102963.00;4962837;28;124224;-61
2022/03/21 03:05:41;;;;;;;42.67;20.23;;;;;;;4.87;47.66;102962.94;4957573;28;123984;-61
2022/03/21 03:08:09;;;;;;;42.33;20.17;;;;;;;4.84;47.70;102962.94;4955250;28;115236;-61
2022/03/21 03:10:38;;;;;;;38.10;19.98;;;;;;;4.80;47.54;102955.88;4953465;28;115618;-61
2022/03/21 03:13:06;;;;;;;40.15;20.35;;;;;;;4.76;47.73;102954.03;4957782;28;124050;-61
2022/03/21 03:15:33;;;;;;;44.92;19.95;;;;;;;4.72;47.62;102952.25;4954695;28;122885;-61
2022/03/21 03:18:01;;;;;;;41.72;19.83;;;;;;;4.67;47.64;102948.66;4958680;28;115166;-61
2022/03/21 03:20:28;;;;;;;43.92;21.05;;;;;;;4.63;47.76;102946.88;4957763;28;114859;-61
2022/03/21 03:22:59;;;;;;;44.05;21.10;;;;;;;4.60;47.73;102952.97;4958743;28;124062;-61
2022/03/21 03:25:27;;;;;;;44.38;20.00;;;;;;;4.57;47.90;102947.66;4963038;28;124489;-61
2022/03/21 03:27:54;;;;;;;45.67;20.95;;;;;;;4.56;47.86;102951.16;4959872;28;114440;-61
2022/03/21 03:30:21;;;;;;;42.95;21.63;;;;;;;4.55;47.88;102956.38;4957612;28;114101;-61
2022/03/21 03:32:50;;;;;;;47.13;21.00;;;;;;;4.51;47.79;102941.47;4958978;28;123850;-61
2022/03/21 03:35:19;;;;;;;44.17;20.75;;;;;;;4.44;47.95;102951.84;4961805;28;123414;-62
2022/03/21 03:37:46;;;;;;;41.38;20.17;;;;;;;4.41;47.93;102954.44;4958936;28;113731;-61
2022/03/21 03:40:14;;;;;;;40.80;19.92;;;;;;;4.39;47.97;102953.56;4954810;28;114638;-61
2022/03/21 03:42:41;;;;;;;44.00;19.98;;;;;;;4.34;47.93;102960.47;4955629;28;124625;-61
2022/03/21 03:45:09;;;;;;;44.30;20.90;;;;;;;4.33;47.99;102969.19;4954369;28;123842;-61
2022/03/21 03:47:36;;;;;;;39.97;20.55;;;;;;;4.31;48.10;102960.41;4956318;28;115010;-61
2022/03/21 03:50:03;;;;;;;40.53;20.33;;;;;;;4.31;48.10;102968.28;4958205;28;114144;-61
2022/03/21 03:52:30;;;;;;;41.15;20.52;;;;;;;4.29;48.21;102962.13;4952663;28;124302;-60
2022/03/21 03:54:57;;;;;;;43.53;21.00;;;;;;;4.29;48.23;102967.38;4959234;28;123899;-61
2022/03/21 03:57:25;;;;;;;40.75;19.73;;;;;;;4.28;48.20;102977.00;4956779;28;115288;-60
2022/03/21 03:59:52;;;;;;;46.55;21.25;;;;;;;4.28;48.23;102981.38;4967165;28;116110;-60
2022/03/21 04:02:19;;;;;;;41.45;20.60;;;;;;;4.28;48.15;102986.59;4958009;28;124453;-60
2022/03/21 04:04:46;;;;;;;41.25;19.70;;;;;;;4.28;48.39;102976.13;4965961;28;122783;-60
2022/03/21 04:07:14;;;;;;;42.25;19.88;;;;;;;4.26;48.21;102989.19;4966121;28;114073;-61
2022/03/21 04:09:41;;;;;;;43.50;21.17;;;;;;;4.25;48.22;102982.19;4969171;28;113123;-61
2022/03/21 04:12:08;;;;;;;39.92;19.45;;;;;;;4.24;48.20;102982.19;4963451;28;123901;-60
2022/03/21 04:14:36;;;;;;;43.20;20.60;;;;;;;4.21;48.12;102982.13;4968147;28;124688;-61
2022/03/21 04:17:03;;;;;;;41.95;18.98;;;;;;;4.20;48.18;102977.72;4967456;28;114012;-60
2022/03/21 04:19:30;;;;;;;42.15;20.00;;;;;;;4.18;48.38;102976.81;4967943;28;114302;-60
2022/03/21 04:21:57;;;;;;;44.67;20.05;;;;;;;4.16;48.49;102971.53;4963207;28;123899;-60
2022/03/21 04:24:24;;;;;;;45.05;19.25;;;;;;;4.14;48.40;102978.50;4963930;28;123914;-60
2022/03/21 04:26:51;;;;;;;46.53;21.17;;;;;;;4.13;48.32;102973.25;4958094;28;114537;-60
2022/03/21 04:29:19;;;;;;;44.53;19.30;;;;;;;4.10;48.42;102974.94;4963500;28;113078;-60
2022/03/21 04:31:46;;;;;;;43.22;20.20;;;;;;;4.09;48.39;102974.94;4957271;28;124990;-61
2022/03/21 04:34:13;;;;;;;44.20;20.17;;;;;;;4.08;48.09;102974.03;4965877;28;124894;-61
2022/03/21 04:36:42;;;;;;;43.35;19.13;;;;;;;4.06;48.39;102970.50;4964312;28;114611;-61
2022/03/21 04:39:09;;;;;;;42.17;20.48;;;;;;;4.04;48.27;102977.47;4961756;28;113915;-61
2022/03/21 04:41:37;;;;;;;40.63;19.17;;;;;;;4.04;48.36;102981.84;4960319;28;123903;-60
2022/03/21 04:44:04;;;;;;;40.28;18.70;;;;;;;4.01;48.21;102977.44;4958567;28;124714;-60
2022/03/21 04:46:31;;;;;;;43.70;19.80;;;;;;;4.00;48.50;102975.66;4963171;28;114835;-60
2022/03/21 04:48:58;;;;;;;39.83;19.75;;;;;;;3.98;48.39;102982.63;4963988;28;114938;-60
2022/03/21 04:51:25;;;;;;;44.38;19.45;;;;;;;3.98;48.47;102987.00;4962326;28;123882;-61
2022/03/21 04:53:52;;;;;;;42.20;19.67;;;;;;;3.97;48.45;102991.31;4966605;28;123760;-61
2022/03/21 04:56:20;;;;;;;53.47;22.85;;;;;;;3.96;48.49;102994.81;4966271;28;114649;-60
2022/03/21 04:58:47;;;;;;;52.08;22.77;;;;;;;3.97;48.57;102993.94;4962250;28;113952;-60
2022/03/21 05:01:14;;;;;;;51.45;22.73;;;;;;;3.99;48.64;103002.72;4961550;28;123961;-60
2022/03/21 05:03:42;;;;;;;50.58;21.55;;;;;;;3.99;48.85;103002.72;4962271;28;122620;-60
2022/03/21 05:06:09;;;;;;;45.20;20.77;;;;;;;4.01;48.88;102998.41;4964068;28;113202;-60
2022/03/21 05:08:36;;;;;;;47.20;20.92;;;;;;;4.02;48.69;103000.16;4966787;28;114052;-60
2022/03/21 05:11:03;;;;;;;47.10;20.48;;;;;;;4.02;48.96;102996.66;4961595;28;124950;-60
2022/03/21 05:13:30;;;;;;;47.45;20.73;;;;;;;4.02;49.09;102999.28;4964874;28;124726;-60
2022/03/21 05:15:57;;;;;;;50.90;22.48;;;;;;;4.01;48.99;102998.41;4970547;28;113438;-60
2022/03/21 05:18:24;;;;;;;53.38;23.00;;;;;;;4.02;49.09;102994.91;4953585;28;114089;-61
2022/03/21 05:20:52;;;;;;;58.25;23.10;;;;;;;4.01;48.86;103003.66;4963300;28;124787;-61
2022/03/21 05:31:36;;;;;;;45.15;20.38;;;;;;;3.95;48.94;103002.66;4964882;28;124291;-60
2022/03/21 05:36:49;;;;;;;46.08;21.08;;;;;;;3.92;48.89;102995.63;4958070;28;115331;-61
2022/03/21 05:39:16;;;;;;;53.75;21.92;;;;;;;3.92;48.95;102995.63;4955013;28;115778;-61
2022/03/21 05:41:43;;;;;;;52.35;22.35;;;;;;;3.91;49.03;102993.84;4959656;28;123839;-61
2022/03/21 05:44:11;;;;;;;47.38;21.02;;;;;;;3.92;48.99;102998.25;4960621;28;124256;-61
2022/03/21 05:46:38;;;;;;;50.95;20.85;;;;;;;3.91;49.02;102996.47;4963057;28;114775;-61
2022/03/21 05:49:06;;;;;;;46.80;20.65;;;;;;;3.90;49.09;102994.72;4958554;28;114472;-61
2022/03/21 05:51:37;;;;;;;49.17;21.08;;;;;;;3.89;49.07;103004.31;4966229;28;124087;-61
2022/03/21 05:54:06;;;;;;;46.17;21.02;;;;;;;3.88;49.16;102996.41;4960226;28;124303;-61
2022/03/21 05:56:35;;;;;;;53.58;21.23;;;;;;;3.89;49.17;103000.81;4964031;28;114847;-61
2022/03/21 06:01:50;;;;;;;48.92;21.77;;;;;;;3.88;48.99;102999.03;4954396;28;124052;-60
2022/03/21 06:04:18;;;;;;;58.40;23.77;;;;;;;3.88;49.21;103002.56;4957803;28;124655;-61
2022/03/21 06:06:46;;;;;;;52.75;21.80;;;;;;;3.89;49.06;103003.44;4961551;28;114921;-61
2022/03/21 06:09:15;;;;;;;50.13;22.10;;;;;;;3.90;49.06;103005.22;4962844;28;114130;-60
2022/03/21 06:11:48;;;;;;;57.33;22.25;;;;;;;3.90;49.14;103015.69;4960853;28;123488;-62
2022/03/21 06:14:18;;;;;;;52.95;21.45;;;;;;;3.90;49.36;103005.22;4968412;28;124176;-61
2022/03/21 06:16:45;;;;;;;51.92;21.42;;;;;;;3.90;49.37;103018.31;4955563;28;114835;-61
2022/03/21 06:19:13;;;;;;;53.10;22.02;;;;;;;3.89;49.58;103013.91;4957706;28;113950;-61
2022/03/21 06:21:40;;;;;;;48.20;21.55;;;;;;;3.90;49.67;103016.56;4954000;28;124866;-61
2022/03/21 06:24:12;;;;;;;53.40;22.85;;;;;;;3.94;49.50;103024.47;4961224;28;124087;-61
2022/03/21 06:26:41;;;;;;;49.70;21.60;;;;;;;3.96;49.67;103020.16;4968844;28;113784;-60
2022/03/21 06:29:08;;;;;;;47.90;20.85;;;;;;;3.98;49.87;103021.94;4960050;28;115540;-60
2022/03/21 06:31:36;;;;;;;42.60;20.40;;;;;;;4.00;49.74;103022.84;4960922;28;123866;-60
2022/03/21 06:34:04;;;;;;;46.25;19.63;;;;;;;4.03;49.68;103017.69;4955302;28;123912;-60
2022/03/21 06:36:31;;;;;;;43.35;20.25;;;;;;;4.06;49.81;103022.06;4965097;28;114716;-60
2022/03/21 06:38:59;;;;;;;44.42;20.20;;;;;;;4.12;49.79;103031.78;4957986;28;114028;-61
2022/03/21 06:41:26;;;;;;;41.80;19.17;;;;;;;4.16;49.89;103029.22;4961133;28;123783;-60
2022/03/21 06:43:53;;;;;;;45.75;19.83;;;;;;;4.24;49.85;103032.00;4963961;28;124485;-61
2022/03/21 06:46:20;;;;;;;42.35;19.77;;;;;;;4.32;50.13;103035.63;4959740;28;115077;-60
2022/03/21 06:48:48;;;;;;;38.13;17.50;;;;;;;4.40;50.21;103036.63;4960668;28;114160;-60
2022/03/21 06:51:16;;;;;;;37.90;17.80;;;;;;;4.51;50.13;103035.94;4960960;28;124129;-61
2022/03/21 06:53:43;;;;;;;37.75;18.40;;;;;;;4.61;50.27;103040.44;4963557;28;123878;-61
2022/03/21 06:56:10;;;;;;;37.83;17.40;;;;;;;4.70;50.36;103043.22;4964012;28;113188;-61
2022/03/21 06:58:38;;;;;;;32.30;16.63;;;;;;;4.80;50.32;103045.13;4962534;28;114403;-60
2022/03/21 07:01:05;;;;;;;31.00;15.40;;;;;;;4.93;50.46;103046.16;4959495;28;123909;-60
2022/03/21 07:03:32;;;;;;;26.55;14.05;;;;;;;5.07;50.77;103043.75;4957609;28;124495;-60
2022/03/21 07:06:00;;;;;;;27.45;14.55;;;;;;;5.22;50.73;103051.81;4957960;28;113393;-61
2022/03/21 07:08:30;;;;;;;25.10;12.80;;;;;;;5.38;50.79;103050.25;4955955;28;113883;-61
2022/03/21 07:10:57;;;;;;;32.97;15.18;;;;;;;5.55;50.96;103053.09;4958531;28;123801;-62
2022/03/21 07:13:27;;;;;;;29.52;15.38;;;;;;;5.74;50.96;103055.94;4956465;28;123905;-61
2022/03/21 07:15:56;;;;;;;26.25;13.98;;;;;;;5.92;51.27;103048.22;4959594;28;115241;-62
2022/03/21 07:18:23;;;;;;;24.38;13.02;;;;;;;6.13;51.32;103046.72;4958714;28;115441;-61
2022/03/21 07:20:50;;;;;;;28.17;14.57;;;;;;;6.31;51.33;103052.13;4967225;28;123623;-62
2022/03/21 07:23:18;;;;;;;26.13;14.32;;;;;;;6.48;51.34;103054.00;4966223;28;124495;-62
2022/03/21 07:25:45;;;;;;;27.00;13.48;;;;;;;6.65;51.14;103047.13;4960368;28;114868;-63
2022/03/21 07:28:13;;;;;;;25.95;13.18;;;;;;;6.82;51.44;103056.00;4957067;28;114354;-62
2022/03/21 07:30:40;;;;;;;26.15;12.73;;;;;;;7.01;51.53;103058.75;4953797;28;124424;-62
2022/03/21 07:33:07;;;;;;;23.92;12.52;;;;;;;7.24;51.61;103058.00;4960759;28;122715;-62
2022/03/21 07:35:36;;;;;;;24.75;12.55;;;;;;;7.47;51.81;103066.88;4959272;28;113953;-59
2022/03/21 07:38:04;;;;;;;23.65;12.23;;;;;;;7.68;51.96;103065.19;4956810;28;113988;-64
2022/03/21 07:40:31;;;;;;;25.20;12.07;;;;;;;7.89;51.78;103065.25;4960781;28;124123;-62
2022/03/21 07:42:59;;;;;;;22.98;12.35;;;;;;;8.11;51.70;103065.28;4964967;28;122826;-62
2022/03/21 07:48:12;;;;;;;21.35;11.88;;;;;;;8.56;51.74;103066.19;4955450;28;113881;-62
2022/03/21 07:50:41;;;;;;;22.67;11.93;;;;;;;8.77;52.09;103068.78;4951526;28;124161;-62
2022/03/21 07:53:10;;;;;;;21.85;11.55;;;;;;;8.97;51.90;103059.97;4958488;28;123720;-62
2022/03/21 07:55:37;;;;;;;24.33;12.77;;;;;;;9.16;51.84;103064.31;4961487;28;114865;-66
2022/03/21 07:58:04;;;;;;;26.85;12.98;;;;;;;9.35;51.89;103061.59;4960245;28;114281;-62
2022/03/21 08:00:32;;;;;;;23.13;12.45;;;;;;;9.54;52.08;103057.97;4955761;28;123825;-62
2022/03/21 08:02:59;;;;;;;29.75;13.57;;;;;;;9.74;51.90;103060.53;4957342;28;124740;-61
2022/03/21 08:05:30;;;;;;;22.80;12.75;;;;;;;9.98;51.89;103057.72;4956462;28;115526;-60
2022/03/21 08:07:57;;;;;;;24.88;13.20;;;;;;;10.20;51.92;103058.44;4961134;28;115102;-60
2022/03/21 08:10:24;;;;;;;23.90;12.75;;;;;;;10.42;52.23;103064.50;4954759;28;124779;-61
2022/03/21 08:12:52;;;;;;;24.77;12.77;;;;;;;10.62;52.03;103057.22;4958624;28;124040;-59
2022/03/21 08:15:19;;;;;;;24.67;13.30;;;;;;;10.81;51.44;103051.72;4958686;28;114166;-60
2022/03/21 08:17:57;;;;;;;23.10;13.45;;;;;;;10.99;51.69;103062.16;4953262;28;115115;-61
2022/03/21 08:20:26;;;;;;;23.38;12.70;;;;;;;11.17;51.70;103061.06;4955908;28;124132;-61
2022/03/21 08:22:53;;;;;;;20.90;12.15;;;;;;;11.34;51.66;103058.22;4957259;28;124092;-61
2022/03/21 08:25:21;;;;;;;20.73;12.63;;;;;;;11.52;51.28;103061.50;4967717;28;115803;-60
2022/03/21 08:27:48;;;;;;;23.40;12.48;;;;;;;11.67;51.18;103063.97;4967026;28;114695;-61
2022/03/21 08:30:16;;;;;;;21.55;11.73;;;;;;;11.84;51.36;103064.59;4966455;28;124325;-61
2022/03/21 08:32:48;;;;;;;22.27;12.27;;;;;;;12.00;51.07;103053.78;4969799;28;124637;-61
2022/03/21 08:35:17;;;;;;;20.08;11.82;;;;;;;12.15;51.06;103058.84;4970525;28;114353;-61
2022/03/21 08:37:46;;;;;;;21.65;11.40;;;;;;;12.31;50.70;103058.59;4967433;28;113953;-61
2022/03/21 08:40:14;;;;;;;21.65;11.80;;;;;;;12.43;50.68;103063.69;4967773;28;124980;-60
2022/03/21 08:42:41;;;;;;;23.80;11.15;;;;;;;12.54;50.50;103061.72;4968155;28;124148;-60
2022/03/21 08:45:10;;;;;;;22.63;11.77;;;;;;;12.71;50.63;103057.91;4969335;28;113023;-61
2022/03/21 08:47:37;;;;;;;19.45;10.45;;;;;;;12.86;50.37;103057.59;4970939;28;114593;-61
2022/03/21 08:50:05;;;;;;;23.30;10.63;;;;;;;13.01;50.26;103057.31;4971016;28;124139;-61
2022/03/21 08:52:33;;;;;;;18.02;10.45;;;;;;;13.18;49.87;103048.13;4972993;28;124554;-60
2022/03/21 08:55:01;;;;;;;22.50;10.88;;;;;;;13.31;49.79;103052.31;4972135;28;114524;-61
2022/03/21 08:57:28;;;;;;;21.23;10.45;;;;;;;13.44;49.67;103045.81;4972579;28;115039;-61
2022/03/21 08:59:55;;;;;;;18.25;10.25;;;;;;;13.59;49.22;103054.38;4969989;28;124785;-61
2022/03/21 09:02:23;;;;;;;20.73;10.35;;;;;;;13.71;48.95;103048.78;4959793;28;124232;-62
2022/03/21 09:04:51;;;;;;;20.45;10.02;;;;;;;13.85;49.11;103050.25;4960905;28;114253;-61
2022/03/21 09:07:19;;;;;;;19.50;9.80;;;;;;;14.00;48.72;103044.56;4958286;28;114106;-61
2022/03/21 09:09:46;;;;;;;16.98;9.30;;;;;;;14.14;48.27;103042.41;4950491;28;124828;-61
2022/03/21 09:12:13;;;;;;;16.55;9.00;;;;;;;14.28;47.84;103049.19;4951190;28;123753;-61
2022/03/21 09:14:40;;;;;;;19.02;9.32;;;;;;;14.41;47.53;103040.84;4953927;28;114568;-61
2022/03/21 09:17:08;;;;;;;16.95;9.15;;;;;;;14.56;47.43;103054.69;4967200;28;114332;-61
2022/03/21 09:19:35;;;;;;;20.42;9.45;;;;;;;14.71;47.31;103053.44;4970404;28;124108;-61
2022/03/21 09:22:03;;;;;;;22.88;9.57;;;;;;;14.85;46.94;103050.41;4955829;28;123021;-61
2022/03/21 09:24:30;;;;;;;20.70;10.02;;;;;;;14.96;46.69;103051.84;4973860;28;114505;-61
2022/03/21 09:26:58;;;;;;;17.55;9.65;;;;;;;15.11;46.83;103041.69;4972511;28;114375;-61
2022/03/21 09:29:25;;;;;;;19.92;9.90;;;;;;;15.26;46.47;103043.88;4955489;28;123564;-62
2022/03/21 09:31:53;;;;;;;19.65;9.52;;;;;;;15.44;46.00;103038.91;4954097;28;123839;-62
2022/03/21 09:34:20;;;;;;;17.17;9.93;;;;;;;15.57;45.73;103034.94;4956160;28;114549;-63
2022/03/21 09:36:48;;;;;;;15.85;9.50;;;;;;;15.69;45.37;103039.03;4960202;28;113711;-62
2022/03/21 09:39:15;;;;;;;20.23;9.88;;;;;;;15.76;44.88;103046.84;4956737;28;123053;-63
2022/03/21 09:41:42;;;;;;;21.35;10.00;;;;;;;15.82;44.67;103034.19;4951761;28;122960;-63
2022/03/21 09:44:10;;;;;;;18.10;10.02;;;;;;;15.91;44.79;103033.91;4952916;28;115573;-63
2022/03/21 09:46:41;;;;;;;19.92;10.20;;;;;;;16.03;44.92;103033.53;4953020;28;114913;-63
2022/03/21 09:49:15;;;;;;;23.13;10.43;;;;;;;16.18;44.78;103032.13;4957894;28;124881;-63
2022/03/21 09:51:43;;;;;;;19.77;11.05;;;;;;;16.35;44.47;103039.59;4958888;28;124268;-63
2022/03/21 09:54:10;;;;;;;22.15;11.25;;;;;;;16.46;44.27;103032.06;4962891;28;113439;-64
2022/03/21 09:56:38;;;;;;;20.05;10.88;;;;;;;16.58;43.95;103027.22;4968634;28;114059;-63
2022/03/21 09:59:05;;;;;;;23.05;10.90;;;;;;;16.69;43.75;103033.06;4964540;28;124303;-64
2022/03/21 10:01:34;;;;;;;23.35;10.50;;;;;;;16.81;44.11;103019.22;4949116;28;123612;-64
2022/03/21 10:04:01;;;;;;;18.33;10.13;;;;;;;16.97;43.61;103026.72;4952846;28;114609;-63
2022/03/21 10:06:32;;;;;;;21.75;11.50;;;;;;;17.08;43.12;103019.16;4938883;28;113178;-64
2022/03/21 10:09:15;;;;;;;19.83;11.60;;;;;;;17.18;43.04;103020.56;4981787;28;123082;-64
2022/03/21 10:11:50;;;;;;;21.38;11.55;;;;;;;17.30;42.94;103013.88;4949702;28;123790;-64
2022/03/21 10:14:34;;;;;;;;;;;;;;;17.34;43.32;103015.47;4953363;28;114017;-63
2022/03/21 10:17:05;;;;;;;27.35;11.65;;;;;;;17.42;42.85;103012.50;4949666;28;113883;-64
2022/03/21 10:19:48;;;;;;;20.88;11.15;;;;;;;17.48;42.57;103012.28;4949025;28;124765;-63
2022/03/21 10:22:19;;;;;;;23.35;11.63;;;;;;;17.55;42.49;103007.53;4950749;28;124464;-63
2022/03/21 10:24:52;;;;;;;20.52;11.88;;;;;;;17.64;42.17;103008.03;4950499;28;115615;-63
2022/03/21 10:27:26;;;;;;;24.02;11.75;;;;;;;17.73;42.32;103000.59;4967022;28;114226;-63
2022/03/21 10:29:59;;;;;;;19.13;10.65;;;;;;;17.83;42.10;102996.56;4971565;28;123992;-64
2022/03/21 10:32:35;;;;;;;20.52;11.82;;;;;;;17.91;41.78;102999.81;4968672;28;123747;-63
2022/03/21 10:35:26;;;;;;;21.85;12.10;;;;;;;18.01;41.76;103006.56;4970694;28;116019;-63
2022/03/21 10:37:58;;;;;;;21.08;11.65;;;;;;;18.11;41.68;103016.91;4969655;28;114776;-63
2022/03/21 10:40:41;;;;;;;22.20;11.57;;;;;;;18.16;41.49;103009.53;4971150;28;124370;-63
2022/03/21 10:43:10;;;;;;;21.20;11.07;;;;;;;18.22;41.00;103006.59;4970889;28;123809;-63
2022/03/21 10:45:40;;;;;;;27.25;12.43;;;;;;;18.29;40.97;103000.03;4971297;28;115729;-63
2022/03/21 10:48:17;;;;;;;22.48;12.10;;;;;;;18.35;40.71;102999.75;4968413;28;114102;-63
2022/03/21 10:50:46;;;;;;;22.50;11.60;;;;;;;18.42;40.88;103001.25;4968466;28;124834;-63
2022/03/21 10:53:32;;;;;;;21.48;11.23;;;;;;;18.49;40.62;102997.34;4970975;28;124040;-64
2022/03/21 10:56:04;;;;;;;19.80;11.77;;;;;;;18.60;40.96;102993.31;4969479;28;114503;-64
2022/03/21 10:58:48;;;;;;;21.10;11.88;;;;;;;18.76;40.99;102996.16;4971579;28;113940;-64
2022/03/21 11:01:25;;;;;;;24.35;12.15;;;;;;;18.89;40.37;102983.09;4971833;28;98574;-64
2022/03/21 11:03:56;;;;;;;19.02;10.90;;;;;;;18.97;39.97;102991.69;4971192;28;123799;-63
2022/03/21 11:06:24;;;;;;;21.90;11.93;;;;;;;18.99;39.79;102984.44;4958469;28;114528;-64
2022/03/21 11:08:52;;;;;;;21.40;11.90;;;;;;;19.02;39.81;102985.16;4938271;28;113042;-64
2022/03/21 11:11:20;;;;;;;21.15;12.15;;;;;;;19.10;39.69;102976.75;4968980;28;124344;-64
2022/03/21 11:13:50;;;;;;;20.63;11.05;;;;;;;19.18;39.66;102979.94;4954455;28;123538;-64
2022/03/21 11:16:18;;;;;;;20.13;11.18;;;;;;;19.29;39.73;102986.59;4949993;28;114435;-64
2022/03/21 11:18:48;;;;;;;21.92;11.48;;;;;;;19.41;39.60;102986.03;4961701;28;115442;-64
2022/03/21 11:21:18;;;;;;;19.23;12.07;;;;;;;19.56;39.77;102985.28;4963130;28;124150;-64
2022/03/21 11:23:47;;;;;;;19.55;11.73;;;;;;;19.69;39.26;102979.31;4958582;28;123940;-63
2022/03/21 11:26:43;;;;;;;20.17;11.90;;;;;;;19.78;39.31;102976.19;4953680;28;115354;-65
2022/03/21 11:29:10;;;;;;;;;;;;;;;19.82;39.74;102980.47;4968197;28;115817;-65
2022/03/21 11:31:37;;;;;;;20.95;11.77;;;;;;;19.93;39.74;102978.09;4970165;28;123934;-64
2022/03/21 11:34:22;;;;;;;19.77;12.35;;;;;;;20.09;39.30;102982.69;4958254;28;123965;-64